• Join FlightAware (Why Join?)
  • Login
  • US Flag 
Rudolph Flight #1: Arrived! 
09:21PM EST


 

Airport Tracker/Info


-or-


 

Live Flight TrackerFlight Track Log ✈ AFL150 ✈ 27-Dec-2013 ✈ UUEE / SVO - MUHA / HAV

Flight Track Log - Related Links

Times and Time Zones

All times are in EST time to prevent confusion due to time zone crossing. See the AFL150 flight status page for this flight to view local times or setup timezone preferences in your user account.

Time Position Orientation Groundspeed Altitude Reporting Facility
EST Latitude Longitude Course Direction KTS MPH feet Rate Location/Type
04:54AM 56.1534 37.0906 318° Northwest  Level FlightAware Approximate
04:55AM 56.2425 36.9470 318° Northwest  Level FlightAware Approximate
04:56AM 56.3314 36.8028 318° Northwest  Level FlightAware Approximate
04:57AM 56.4202 36.6580 318° Northwest  Level FlightAware Approximate
04:58AM 56.5088 36.5124 318° Northwest  Level FlightAware Approximate
04:59AM 56.5973 36.3662 318° Northwest  Level FlightAware Approximate
05:00AM 56.6855 36.2192 318° Northwest  Level FlightAware Approximate
05:01AM 56.7736 36.0716 317° Northwest  Level FlightAware Approximate
05:02AM 56.8615 35.9233 317° Northwest  Level FlightAware Approximate
05:03AM 56.9492 35.7743 317° Northwest  Level FlightAware Approximate
05:04AM 57.0368 35.6246 317° Northwest  Level FlightAware Approximate
05:05AM 57.1242 35.4742 317° Northwest  Level FlightAware Approximate
05:06AM 57.2114 35.3231 317° Northwest  Level FlightAware Approximate
05:07AM 57.2984 35.1712 317° Northwest  Level FlightAware Approximate
05:08AM 57.3852 35.0187 317° Northwest  Level FlightAware Approximate
05:09AM 57.4719 34.8654 316° Northwest  Level FlightAware Approximate
05:10AM 57.5398 34.6820 314° West  Level Estimated
05:11AM 57.6230 34.5215 314° West  Level FlightAware Approximate
05:12AM 57.7059 34.3603 314° West  Level FlightAware Approximate
05:13AM 57.7887 34.1983 314° West  Level FlightAware Approximate
05:14AM 57.8712 34.0356 314° West  Level FlightAware Approximate
05:15AM 57.9535 33.8722 314° West  Level FlightAware Approximate
05:16AM 58.0356 33.7080 313° West  Level FlightAware Approximate
05:17AM 58.1176 33.5430 313° West  Level FlightAware Approximate
05:18AM 58.1993 33.3773 313° West  Level FlightAware Approximate
05:19AM 58.2807 33.2109 313° West  Level FlightAware Approximate
05:20AM 58.3620 33.0436 313° West  Level FlightAware Approximate
05:21AM 58.4430 32.8756 313° West  Level FlightAware Approximate
05:22AM 58.5239 32.7068 313° West  Level FlightAware Approximate
05:23AM 58.6045 32.5373 312° West  Level FlightAware Approximate
05:24AM 58.6848 32.3669 312° West  Level FlightAware Approximate
05:25AM 58.7650 32.1958 312° West  Level FlightAware Approximate
05:26AM 58.8449 32.0238 312° West  Level FlightAware Approximate
05:27AM 58.9246 31.8511 312° West  Level FlightAware Approximate
05:28AM 59.0041 31.6776 312° West  Level FlightAware Approximate
05:29AM 59.0833 31.5033 312° West  Level FlightAware Approximate
05:30AM 59.1623 31.3281 311° West  Level FlightAware Approximate
05:31AM 59.2410 31.1522 311° West  Level FlightAware Approximate
05:32AM 59.3196 30.9755 311° West  Level FlightAware Approximate
05:33AM 59.3978 30.7979 311° West  Level FlightAware Approximate
05:34AM 59.4759 30.6195 311° West  Level FlightAware Approximate
05:35AM 59.5537 30.4403 311° West  Level FlightAware Approximate
05:36AM 59.6312 30.2603 310° West  Level FlightAware Approximate
05:37AM 59.7085 30.0794 310° West  Level FlightAware Approximate
05:38AM 59.7856 29.8977 310° West  Level FlightAware Approximate
05:39AM 59.8624 29.7151 310° West  Level FlightAware Approximate
05:40AM 59.9389 29.5317 310° West  Level FlightAware Approximate
05:41AM 60.0152 29.3475 310° West  Level FlightAware Approximate
05:42AM 60.0912 29.1624 310° West  Level FlightAware Approximate
05:43AM 60.1670 28.9765 309° West  Level FlightAware Approximate
05:44AM 60.2425 28.7897 309° West  Level FlightAware Approximate
05:45AM 60.3177 28.6020 309° West  Level FlightAware Approximate
05:46AM 60.3927 28.4135 309° West  Level FlightAware Approximate
05:47AM 60.4674 28.2241 309° West  Level FlightAware Approximate
05:48AM 60.5419 28.0338 309° West  Level FlightAware Approximate
05:49AM 60.6161 27.8427 308° West  Level FlightAware Approximate
05:50AM 60.6899 27.6507 308° West  Level FlightAware Approximate
05:51AM 60.7636 27.4577 308° West  Level FlightAware Approximate
05:52AM 60.8369 27.2640 308° West  Level FlightAware Approximate
05:53AM 60.9100 27.0693 308° West  Level FlightAware Approximate
05:54AM 60.9827 26.8737 308° West  Level FlightAware Approximate
05:55AM 61.0552 26.6772 307° West  Level FlightAware Approximate
05:56AM 61.1274 26.4799 307° West  Level FlightAware Approximate
05:57AM 61.1994 26.2816 307° West  Level FlightAware Approximate
05:58AM 61.2710 26.0824 307° West  Level FlightAware Approximate
05:59AM 61.3423 25.8823 307° West  Level FlightAware Approximate
06:00AM 61.4134 25.6813 307° West  Level FlightAware Approximate
06:01AM 61.4841 25.4794 306° West  Level FlightAware Approximate
06:02AM 61.5546 25.2766 306° West  Level FlightAware Approximate
06:03AM 61.6247 25.0728 306° West  Level FlightAware Approximate
06:04AM 61.6770 24.8462 305° West  Level Estimated
06:05AM 61.7462 24.6402 305° West  Level FlightAware Approximate
06:06AM 61.8150 24.4332 305° West  Level FlightAware Approximate
06:07AM 61.8835 24.2253 305° West  Level FlightAware Approximate
06:08AM 61.9518 24.0165 305° West  Level FlightAware Approximate
06:09AM 62.0197 23.8067 305° West  Level FlightAware Approximate
06:10AM 62.0872 23.5960 304° West  Level FlightAware Approximate
06:11AM 62.1545 23.3843 304° West  Level FlightAware Approximate
06:12AM 62.2214 23.1718 304° West  Level FlightAware Approximate
06:13AM 62.2880 22.9583 304° West  Level FlightAware Approximate
06:14AM 62.3543 22.7438 304° West  Level FlightAware Approximate
06:15AM 62.4203 22.5284 304° West  Level FlightAware Approximate
06:16AM 62.4859 22.3120 303° West  Level FlightAware Approximate
06:17AM 62.5512 22.0947 303° West  Level FlightAware Approximate
06:18AM 62.6161 21.8764 303° West  Level FlightAware Approximate
06:19AM 62.6807 21.6572 303° West  Level FlightAware Approximate
06:20AM 62.7449 21.4370 303° West  Level FlightAware Approximate
06:21AM 62.8089 21.2159 302° West  Level FlightAware Approximate
06:22AM 62.8724 20.9938 302° West  Level FlightAware Approximate
06:23AM 62.9356 20.7707 302° West  Level FlightAware Approximate
06:24AM 62.9985 20.5467 302° West  Level FlightAware Approximate
06:25AM 63.0610 20.3217 302° West  Level FlightAware Approximate
06:26AM 63.1231 20.0958 301° West  Level FlightAware Approximate
06:27AM 63.1849 19.8689 301° West  Level FlightAware Approximate
06:28AM 63.2463 19.6410 301° West  Level FlightAware Approximate
06:29AM 63.3074 19.4121 301° West  Level FlightAware Approximate
06:30AM 63.3680 19.1823 301° West  Level FlightAware Approximate
06:31AM 63.4284 18.9515 300° West  Level FlightAware Approximate
06:32AM 63.4883 18.7198 300° West  Level FlightAware Approximate
06:33AM 63.5479 18.4870 300° West  Level FlightAware Approximate
06:34AM 63.6070 18.2533 300° West  Level FlightAware Approximate
06:35AM 63.6658 18.0187 300° West  Level FlightAware Approximate
06:36AM 63.7243 17.7830 299° West  Level FlightAware Approximate
06:37AM 63.7823 17.5464 299° West  Level FlightAware Approximate
06:38AM 63.8399 17.3088 299° West  Level FlightAware Approximate
06:39AM 63.8972 17.0702 299° West  Level FlightAware Approximate
06:40AM 63.9540 16.8307 298° West  Level FlightAware Approximate
06:41AM 64.0105 16.5902 298° West  Level FlightAware Approximate
06:42AM 64.0666 16.3487 298° West  Level FlightAware Approximate
06:43AM 64.1222 16.1063 298° West  Level FlightAware Approximate
06:44AM 64.1775 15.8629 298° West  Level FlightAware Approximate
06:45AM 64.2323 15.6185 297° West  Level FlightAware Approximate
06:46AM 64.2868 15.3731 297° West  Level FlightAware Approximate
06:47AM 64.3408 15.1268 297° West  Level FlightAware Approximate
06:48AM 64.3944 14.8795 297° West  Level FlightAware Approximate
06:49AM 64.4476 14.6313 297° West  Level FlightAware Approximate
06:50AM 64.5004 14.3821 296° West  Level FlightAware Approximate
06:51AM 64.5527 14.1319 296° West  Level FlightAware Approximate
06:52AM 64.6046 13.8808 296° West  Level FlightAware Approximate
06:53AM 64.6561 13.6287 296° West  Level FlightAware Approximate
06:54AM 64.7072 13.3757 295° West  Level FlightAware Approximate
06:55AM 64.7578 13.1217 295° West  Level FlightAware Approximate
06:56AM 64.8080 12.8667 295° West  Level FlightAware Approximate
06:57AM 64.8578 12.6109 295° West  Level FlightAware Approximate
06:58AM 64.9071 12.3540 294° West  Level FlightAware Approximate
06:59AM 64.9560 12.0962 294° West  Level FlightAware Approximate
07:00AM 65.0044 11.8375 294° West  Level FlightAware Approximate
07:01AM 65.0524 11.5779 294° West  Level FlightAware Approximate
07:02AM 65.0999 11.3173 294° West  Level FlightAware Approximate
07:03AM 65.1470 11.0558 293° West  Level FlightAware Approximate
07:04AM 65.1936 10.7934 293° West  Level FlightAware Approximate
07:05AM 65.2398 10.5300 293° West  Level FlightAware Approximate
07:06AM 65.2854 10.2657 293° West  Level FlightAware Approximate
07:07AM 65.3307 10.0006 292° West  Level FlightAware Approximate
07:08AM 65.3754 9.7345 292° West  Level FlightAware Approximate
07:09AM 65.4197 9.4675 292° West  Level FlightAware Approximate
07:10AM 65.4635 9.1996 292° West  Level FlightAware Approximate
07:11AM 65.5069 8.9308 291° West  Level FlightAware Approximate
07:12AM 65.5498 8.6611 291° West  Level FlightAware Approximate
07:13AM 65.5921 8.3905 291° West  Level FlightAware Approximate
07:14AM 65.6340 8.1191 291° West  Level FlightAware Approximate
07:15AM 65.6755 7.8468 290° West  Level FlightAware Approximate
07:16AM 65.7164 7.5736 290° West  Level FlightAware Approximate
07:17AM 65.7568 7.2996 290° West  Level FlightAware Approximate
07:18AM 65.7968 7.0247 290° West  Level FlightAware Approximate
07:19AM 65.8362 6.7489 289° West  Level FlightAware Approximate
07:20AM 65.8549 6.4601 289° West  Level Estimated
07:21AM 65.8937 6.1832 289° West  Level FlightAware Approximate
07:22AM 65.9320 5.9054 289° West  Level FlightAware Approximate
07:23AM 65.9698 5.6268 289° West  Level FlightAware Approximate
07:24AM 66.0071 5.3474 288° West  Level FlightAware Approximate
07:25AM 66.0438 5.0672 288° West  Level FlightAware Approximate
07:26AM 66.0801 4.7862 288° West  Level FlightAware Approximate
07:27AM 66.1159 4.5044 288° West  Level FlightAware Approximate
07:28AM 66.1511 4.2217 287° West  Level FlightAware Approximate
07:29AM 66.1858 3.9383 287° West  Level FlightAware Approximate
07:30AM 66.2200 3.6542 287° West  Level FlightAware Approximate
07:31AM 66.2537 3.3692 286° West  Level FlightAware Approximate
07:32AM 66.2869 3.0835 286° West  Level FlightAware Approximate
07:33AM 66.3195 2.7971 286° West  Level FlightAware Approximate
07:34AM 66.3516 2.5099 286° West  Level FlightAware Approximate
07:35AM 66.3832 2.2220 285° West  Level FlightAware Approximate
07:36AM 66.4142 1.9334 285° West  Level FlightAware Approximate
07:37AM 66.4447 1.6441 285° West  Level FlightAware Approximate
07:38AM 66.4747 1.3540 285° West  Level FlightAware Approximate
07:39AM 66.5042 1.0633 284° West  Level FlightAware Approximate
07:40AM 66.5330 0.7719 284° West  Level FlightAware Approximate
07:41AM 66.5614 0.4798 284° West  Level FlightAware Approximate
07:42AM 66.5892 0.1870 284° West  Level FlightAware Approximate
07:43AM 66.6165 -0.1064 283° West  Level FlightAware Approximate
07:44AM 66.6432 -0.4004 283° West  Level FlightAware Approximate
07:45AM 66.6693 -0.6951 283° West  Level FlightAware Approximate
07:46AM 66.6949 -0.9903 282° West  Level FlightAware Approximate
07:47AM 66.7200 -1.2862 282° West  Level FlightAware Approximate
07:48AM 66.7445 -1.5827 282° West  Level FlightAware Approximate
07:49AM 66.7684 -1.8798 282° West  Level FlightAware Approximate
07:50AM 66.7701 -2.1831 281° West  Level Estimated
07:51AM 66.7927 -2.4811 281° West  Level FlightAware Approximate
07:52AM 66.8148 -2.7797 281° West  Level FlightAware Approximate
07:53AM 66.8363 -3.0788 280° West  Level FlightAware Approximate
07:54AM 66.8573 -3.3784 280° West  Level FlightAware Approximate
07:55AM 66.8777 -3.6786 280° West  Level FlightAware Approximate
07:56AM 66.8975 -3.9792 280° West  Level FlightAware Approximate
07:57AM 66.9167 -4.2803 279° West  Level FlightAware Approximate
07:58AM 66.9354 -4.5818 279° West  Level FlightAware Approximate
07:59AM 66.9535 -4.8839 279° West  Level FlightAware Approximate
08:00AM 66.9710 -5.1863 279° West  Level FlightAware Approximate
08:01AM 66.9880 -5.4892 278° West  Level FlightAware Approximate
08:02AM 67.0043 -5.7925 278° West  Level FlightAware Approximate
08:03AM 67.0201 -6.0962 278° West  Level FlightAware Approximate
08:04AM 67.0354 -6.4003 277° West  Level FlightAware Approximate
08:05AM 67.0500 -6.7048 277° West  Level FlightAware Approximate
08:06AM 67.0641 -7.0096 277° West  Level FlightAware Approximate
08:07AM 67.0775 -7.3148 277° West  Level FlightAware Approximate
08:08AM 67.0904 -7.6203 276° West  Level FlightAware Approximate
08:09AM 67.1027 -7.9261 276° West  Level FlightAware Approximate
08:10AM 67.1144 -8.2323 276° West  Level FlightAware Approximate
08:11AM 67.1256 -8.5387 275° West  Level FlightAware Approximate
08:12AM 67.1361 -8.8454 275° West  Level FlightAware Approximate
08:13AM 67.1461 -9.1523 275° West  Level FlightAware Approximate
08:14AM 67.1554 -9.4595 275° West  Level FlightAware Approximate
08:15AM 67.1642 -9.7670 274° West  Level FlightAware Approximate
08:16AM 67.1724 -10.0746 274° West  Level FlightAware Approximate
08:17AM 67.1800 -10.3825 274° West  Level FlightAware Approximate
08:18AM 67.1870 -10.6905 273° West  Level FlightAware Approximate
08:19AM 67.1934 -10.9987 273° West  Level FlightAware Approximate
08:20AM 67.1992 -11.3071 273° West  Level FlightAware Approximate
08:21AM 67.2044 -11.6156 273° West  Level FlightAware Approximate
08:22AM 67.2091 -11.9242 272° West  Level FlightAware Approximate
08:23AM 67.2131 -12.2329 272° West  Level FlightAware Approximate
08:24AM 67.2165 -12.5418 272° West  Level FlightAware Approximate
08:25AM 67.2194 -12.8507 272° West  Level FlightAware Approximate
08:26AM 67.2216 -13.1597 271° West  Level FlightAware Approximate
08:27AM 67.2233 -13.4687 271° West  Level FlightAware Approximate
08:28AM 67.2244 -13.7778 271° West  Level FlightAware Approximate
08:29AM 67.2248 -14.0869 270° West  Level FlightAware Approximate
08:30AM 67.2247 -14.3960 270° West  Level FlightAware Approximate
08:31AM 67.2240 -14.7050 270° West  Level FlightAware Approximate
08:32AM 67.2227 -15.0141 270° West  Level FlightAware Approximate
08:33AM 67.2207 -15.3231 269° West  Level FlightAware Approximate
08:34AM 67.2182 -15.6321 269° West  Level FlightAware Approximate
08:35AM 67.2151 -15.9410 269° West  Level FlightAware Approximate
08:36AM 67.2114 -16.2498 268° West  Level FlightAware Approximate
08:37AM 67.2072 -16.5585 268° West  Level FlightAware Approximate
08:38AM 67.2023 -16.8670 268° West  Level FlightAware Approximate
08:39AM 67.1968 -17.1755 268° West  Level FlightAware Approximate
08:40AM 67.1907 -17.4838 267° West  Level FlightAware Approximate
08:41AM 67.1841 -17.7919 267° West  Level FlightAware Approximate
08:42AM 67.1768 -18.0999 267° West  Level FlightAware Approximate
08:43AM 67.1690 -18.4076 266° West  Level FlightAware Approximate
08:44AM 67.1605 -18.7152 266° West  Level FlightAware Approximate
08:45AM 67.1515 -19.0225 266° West  Level FlightAware Approximate
08:46AM 67.1419 -19.3296 266° West  Level FlightAware Approximate
08:47AM 67.1317 -19.6365 265° West  Level FlightAware Approximate
08:48AM 67.1209 -19.9431 265° West  Level FlightAware Approximate
08:49AM 67.1095 -20.2494 265° West  Level FlightAware Approximate
08:50AM 67.0975 -20.5554 264° West  Level FlightAware Approximate
08:51AM 67.0850 -20.8610 264° West  Level FlightAware Approximate
08:52AM 67.0492 -21.1540 263° West  Level Estimated
08:53AM 67.0352 -21.4587 263° West  Level FlightAware Approximate
08:54AM 67.0207 -21.7630 263° West  Level FlightAware Approximate
08:55AM 67.0056 -22.0670 263° West  Level FlightAware Approximate
08:56AM 66.9899 -22.3706 263° West  Level FlightAware Approximate
08:57AM 66.9737 -22.6737 262° West  Level FlightAware Approximate
08:58AM 66.9568 -22.9765 262° West  Level FlightAware Approximate
08:59AM 66.9394 -23.2788 262° West  Level FlightAware Approximate
09:00AM 66.9214 -23.5807 261° West  Level FlightAware Approximate
09:01AM 66.9029 -23.8821 261° West  Level FlightAware Approximate
09:02AM 66.8837 -24.1831 261° West  Level FlightAware Approximate
09:03AM 66.8640 -24.4836 261° West  Level FlightAware Approximate
09:04AM 66.8438 -24.7836 260° West  Level FlightAware Approximate
09:05AM 66.8229 -25.0831 260° West  Level FlightAware Approximate
09:06AM 66.8015 -25.3821 260° West  Level FlightAware Approximate
09:07AM 66.7795 -25.6806 260° West  Level FlightAware Approximate
09:08AM 66.7570 -25.9785 259° West  Level FlightAware Approximate
09:09AM 66.7339 -26.2759 259° West  Level FlightAware Approximate
09:10AM 66.7103 -26.5727 259° West  Level FlightAware Approximate
09:11AM 66.6861 -26.8689 258° West  Level FlightAware Approximate
09:12AM 66.6613 -27.1645 258° West  Level FlightAware Approximate
09:13AM 66.6360 -27.4596 258° West  Level FlightAware Approximate
09:14AM 66.6101 -27.7540 258° West  Level FlightAware Approximate
09:15AM 66.5837 -28.0478 257° West  Level FlightAware Approximate
09:16AM 66.5567 -28.3410 257° West  Level FlightAware Approximate
09:17AM 66.5292 -28.6335 257° West  Level FlightAware Approximate
09:18AM 66.5012 -28.9254 257° West  Level FlightAware Approximate
09:19AM 66.4726 -29.2167 256° West  Level FlightAware Approximate
09:20AM 66.4434 -29.5072 256° West  Level FlightAware Approximate
09:21AM 66.4137 -29.7971 256° West  Level FlightAware Approximate
09:22AM 66.3835 -30.0863 256° West  Level FlightAware Approximate
09:23AM 66.3528 -30.3747 255° West  Level FlightAware Approximate
09:24AM 66.3215 -30.6625 255° West  Level FlightAware Approximate
09:25AM 66.2897 -30.9495 255° West  Level FlightAware Approximate
09:26AM 66.2573 -31.2358 254° West  Level FlightAware Approximate
09:27AM 66.2245 -31.5214 254° West  Level FlightAware Approximate
09:28AM 66.1911 -31.8062 254° West  Level FlightAware Approximate
09:29AM 66.1572 -32.0903 254° West  Level FlightAware Approximate
09:30AM 66.1227 -32.3736 253° West  Level FlightAware Approximate
09:31AM 66.0878 -32.6561 253° West  Level FlightAware Approximate
09:32AM 66.0523 -32.9379 253° West  Level FlightAware Approximate
09:33AM 66.0164 -33.2188 253° West  Level FlightAware Approximate
09:34AM 65.9799 -33.4990 252° West  Level FlightAware Approximate
09:35AM 65.9429 -33.7783 252° West  Level FlightAware Approximate
09:36AM 65.9054 -34.0568 252° West  Level FlightAware Approximate
09:37AM 65.8674 -34.3346 252° West  Level FlightAware Approximate
09:38AM 65.8289 -34.6115 251° West  Level FlightAware Approximate
09:39AM 65.7899 -34.8875 251° West  Level FlightAware Approximate
09:40AM 65.7504 -35.1627 251° West  Level FlightAware Approximate
09:41AM 65.7104 -35.4371 251° West  Level FlightAware Approximate
09:42AM 65.6699 -35.7106 250° West  Level FlightAware Approximate
09:43AM 65.6290 -35.9833 250° West  Level FlightAware Approximate
09:44AM 65.5875 -36.2551 250° West  Level FlightAware Approximate
09:45AM 65.5455 -36.5260 250° West  Level FlightAware Approximate
09:46AM 65.5031 -36.7960 249° West  Level FlightAware Approximate
09:47AM 65.4602 -37.0652 249° West  Level FlightAware Approximate
09:48AM 65.4168 -37.3335 249° West  Level FlightAware Approximate
09:49AM 65.3730 -37.6009 249° West  Level FlightAware Approximate
09:50AM 65.3287 -37.8674 248° West  Level FlightAware Approximate
09:51AM 65.2839 -38.1330 248° West  Level FlightAware Approximate
09:52AM 65.2386 -38.3977 248° West  Level FlightAware Approximate
09:53AM 65.1929 -38.6614 248° West  Level FlightAware Approximate
09:54AM 65.1467 -38.9243 247° West  Level FlightAware Approximate
09:55AM 65.1001 -39.1862 247° West  Level FlightAware Approximate
09:56AM 65.0530 -39.4473 247° West  Level FlightAware Approximate
09:57AM 65.0055 -39.7074 247° West  Level FlightAware Approximate
09:58AM 64.9575 -39.9665 246° West  Level FlightAware Approximate
09:59AM 64.9090 -40.2248 246° West  Level FlightAware Approximate
10:00AM 64.8601 -40.4821 246° West  Level FlightAware Approximate
10:01AM 64.8108 -40.7384 246° West  Level FlightAware Approximate
10:02AM 64.7391 -40.9633 245° Southwest  Level Estimated
10:03AM 64.6892 -41.2179 245° Southwest  Level FlightAware Approximate
10:04AM 64.6389 -41.4716 245° Southwest  Level FlightAware Approximate
10:05AM 64.5882 -41.7243 245° Southwest  Level FlightAware Approximate
10:06AM 64.5370 -41.9761 245° Southwest  Level FlightAware Approximate
10:07AM 64.4854 -42.2270 245° Southwest  Level FlightAware Approximate
10:08AM 64.4333 -42.4769 244° Southwest  Level FlightAware Approximate
10:09AM 64.3809 -42.7258 244° Southwest  Level FlightAware Approximate
10:10AM 64.3280 -42.9738 244° Southwest  Level FlightAware Approximate
10:11AM 64.2747 -43.2209 244° Southwest  Level FlightAware Approximate
10:12AM 64.2209 -43.4670 243° Southwest  Level FlightAware Approximate
10:13AM 64.1668 -43.7121 243° Southwest  Level FlightAware Approximate
10:14AM 64.1123 -43.9563 243° Southwest  Level FlightAware Approximate
10:15AM 64.0573 -44.1995 243° Southwest  Level FlightAware Approximate
10:16AM 64.0020 -44.4417 243° Southwest  Level FlightAware Approximate
10:17AM 63.9462 -44.6830 242° Southwest  Level FlightAware Approximate
10:18AM 63.8901 -44.9233 242° Southwest  Level FlightAware Approximate
10:19AM 63.8335 -45.1627 242° Southwest  Level FlightAware Approximate
10:20AM 63.7766 -45.4011 242° Southwest  Level FlightAware Approximate
10:21AM 63.7193 -45.6385 241° Southwest  Level FlightAware Approximate
10:22AM 63.6615 -45.8750 241° Southwest  Level FlightAware Approximate
10:23AM 63.6034 -46.1105 241° Southwest  Level FlightAware Approximate
10:24AM 63.5449 -46.3451 241° Southwest  Level FlightAware Approximate
10:25AM 63.4861 -46.5787 241° Southwest  Level FlightAware Approximate
10:26AM 63.4268 -46.8113 240° Southwest  Level FlightAware Approximate
10:27AM 63.3672 -47.0429 240° Southwest  Level FlightAware Approximate
10:28AM 63.3072 -47.2736 240° Southwest  Level FlightAware Approximate
10:29AM 63.2468 -47.5034 240° Southwest  Level FlightAware Approximate
10:30AM 63.1861 -47.7321 240° Southwest  Level FlightAware Approximate
10:31AM 63.1250 -47.9599 239° Southwest  Level FlightAware Approximate
10:32AM 63.0635 -48.1868 239° Southwest  Level FlightAware Approximate
10:33AM 63.0016 -48.4127 239° Southwest  Level FlightAware Approximate
10:34AM 62.9394 -48.6376 239° Southwest  Level FlightAware Approximate
10:35AM 62.8769 -48.8616 239° Southwest  Level FlightAware Approximate
10:36AM 62.8140 -49.0846 238° Southwest  Level FlightAware Approximate
10:37AM 62.7507 -49.3067 238° Southwest  Level FlightAware Approximate
10:38AM 62.6871 -49.5278 238° Southwest  Level FlightAware Approximate
10:39AM 62.6232 -49.7480 238° Southwest  Level FlightAware Approximate
10:40AM 62.5589 -49.9672 238° Southwest  Level FlightAware Approximate
10:41AM 62.4943 -50.1854 237° Southwest  Level FlightAware Approximate
10:42AM 62.4293 -50.4028 237° Southwest  Level FlightAware Approximate
10:43AM 62.3640 -50.6191 237° Southwest  Level FlightAware Approximate
10:44AM 62.2983 -50.8346 237° Southwest  Level FlightAware Approximate
10:45AM 62.2323 -51.0491 237° Southwest  Level FlightAware Approximate
10:46AM 62.1660 -51.2626 236° Southwest  Level FlightAware Approximate
10:47AM 62.0994 -51.4752 236° Southwest  Level FlightAware Approximate
10:48AM 62.0324 -51.6869 236° Southwest  Level FlightAware Approximate
10:49AM 61.9651 -51.8977 236° Southwest  Level FlightAware Approximate
10:50AM 61.8975 -52.1075 236° Southwest  Level FlightAware Approximate
10:51AM 61.8296 -52.3164 236° Southwest  Level FlightAware Approximate
10:52AM 61.7614 -52.5244 235° Southwest  Level FlightAware Approximate
10:53AM 61.6928 -52.7314 235° Southwest  Level FlightAware Approximate
10:54AM 61.6240 -52.9375 235° Southwest  Level FlightAware Approximate
10:55AM 61.5548 -53.1427 235° Southwest  Level FlightAware Approximate
10:56AM 61.4853 -53.3470 235° Southwest  Level FlightAware Approximate
10:57AM 61.4155 -53.5504 234° Southwest  Level FlightAware Approximate
10:58AM 61.3455 -53.7529 234° Southwest  Level FlightAware Approximate
10:59AM 61.2751 -53.9545 234° Southwest  Level FlightAware Approximate
11:00AM 61.2044 -54.1552 234° Southwest  Level FlightAware Approximate
11:01AM 61.1334 -54.3549 234° Southwest  Level FlightAware Approximate
11:02AM 61.0621 -54.5538 234° Southwest  Level FlightAware Approximate
11:03AM 60.9906 -54.7518 233° Southwest  Level FlightAware Approximate
11:04AM 60.8978 -54.9073 233° Southwest  Level Estimated
11:05AM 60.8271 -55.1055 234° Southwest  Level FlightAware Approximate
11:06AM 60.7346 -55.2578 219° Southwest  Level Estimated
11:07AM 60.6421 -55.4091 219° Southwest  Level Estimated
11:08AM 60.5493 -55.5596 219° Southwest  Level Estimated
11:09AM 60.4564 -55.7093 218° Southwest  Level Estimated
11:10AM 60.3633 -55.8581 218° Southwest  Level Estimated
11:11AM 60.2700 -56.0060 218° Southwest  Level Estimated
11:12AM 60.1766 -56.1531 218° Southwest  Level Estimated
11:13AM 60.0830 -56.2994 218° Southwest  Level Estimated
11:14AM 59.9893 -56.4448 218° Southwest  Level Estimated
11:15AM 59.8953 -56.5894 218° Southwest  Level Estimated
11:16AM 59.8013 -56.7332 218° Southwest  Level Estimated
11:17AM 59.7071 -56.8762 217° Southwest  Level Estimated
11:17AM 62.4833 -58.7000 217° Southwest 430 495 37,000  Level Gander Center
11:18AM 59.6127 -57.0184 217° Southwest  Level Estimated
11:18AM 62.4000 -58.8833 226° Southwest 430 495 37,000  Level Gander Center
11:19AM 59.5182 -57.1597 217° Southwest  Level Estimated
11:19AM 62.3333 -59.1000 237° Southwest 440 506 37,000  Level Gander Center
11:20AM 59.4235 -57.3003 217° Southwest  Level Estimated
11:20AM 62.2667 -59.3167 237° Southwest 430 495 37,000  Level Gander Center
11:21AM 59.3287 -57.4401 217° Southwest  Level Estimated
11:21AM 62.1833 -59.5000 226° Southwest 430 495 37,000  Level Gander Center
11:22AM 59.2337 -57.5792 217° Southwest  Level Estimated
11:22AM 62.1000 -59.7167 231° Southwest 440 506 37,000  Level Gander Center
11:23AM 62.0333 -59.9000 232° Southwest 430 495 37,000  Level Gander Center
11:24AM 61.9500 -60.1167 231° Southwest 430 495 37,000  Level Gander Center
11:25AM 61.8667 -60.3000 226° Southwest 430 495 37,000  Level Gander Center
11:26AM 61.8167 -60.5167 244° Southwest 430 495 37,000  Level Gander Center
11:27AM 61.7333 -60.6833 223° Southwest 440 506 37,000  Level Gander Center
11:28AM 61.6500 -60.9000 231° Southwest 430 495 37,000  Level Gander Center
11:29AM 61.5833 -61.0667 230° Southwest 430 495 37,000  Level Gander Center
11:30AM 61.5000 -61.2833 231° Southwest 430 495 37,000  Level Gander Center
11:31AM 61.4167 -61.4833 229° Southwest 430 495 37,000  Level Gander Center
11:32AM 61.3333 -61.6667 227° Southwest 440 506 37,000  Level Gander Center
11:33AM 61.2667 -61.8667 235° Southwest 440 506 37,000  Level Gander Center
11:34AM 61.1833 -62.0333 224° Southwest 450 518 37,000  Level Gander Center
11:35AM 61.1000 -62.2500 232° Southwest 440 506 37,000  Level Gander Center
11:36AM 61.0333 -62.4167 230° Southwest 440 506 37,000  Level Gander Center
11:37AM 60.9500 -62.6167 229° Southwest 440 506 37,000  Level Gander Center
11:38AM 60.8500 -62.7833 219° Southwest 440 506 37,000  Level Gander Center
11:39AM 60.7833 -62.9833 236° Southwest 430 495 37,000  Level Gander Center
11:40AM 60.7000 -63.1833 230° Southwest 430 495 37,000  Level Gander Center
11:41AM 60.6333 -63.3500 231° Southwest 430 495 37,000  Level Gander Center
11:42AM 60.5500 -63.5167 225° Southwest 430 495 37,000  Level Gander Center
11:43AM 60.4667 -63.7500 234° Southwest 430 495 37,000  Level Gander Center
11:44AM 60.3833 -63.9000 222° Southwest 430 495 37,000  Level Gander Center
11:45AM 60.3000 -64.0667 225° Southwest 430 495 37,000  Level Gander Center
11:46AM 60.2167 -64.2667 230° Southwest 430 495 37,000  Level Gander Center
11:47AM 60.1333 -64.4167 222° Southwest 430 495 37,000  Level Gander Center
11:48AM 60.0667 -64.6167 236° Southwest 430 495 37,100 240 Climbing Gander Center
11:49AM 59.9667 -64.7667 217° Southwest 430 495 37,500 360 Climbing Gander Center
11:50AM 59.9000 -64.9667 236° Southwest 430 495 37,900 240 Climbing Gander Center
11:51AM 59.8167 -65.1167 222° Southwest 440 506 38,000  Climbing Gander Center
11:52AM 59.7333 -65.3167 230° Southwest 430 495 38,000  Level Gander Center
11:53AM 59.6500 -65.4667 222° Southwest 430 495 38,000  Level Gander Center
11:54AM 59.5667 -65.6500 228° Southwest 430 495 38,000  Level Gander Center
11:55AM 59.4833 -65.8000 222° Southwest 430 495 38,000  Level Gander Center
11:56AM 59.3833 -65.9833 223° Southwest 430 495 38,000  Level Gander Center
11:57AM 59.3167 -66.1500 232° Southwest 430 495 38,000  Level Gander Center
11:58AM 59.2333 -66.3333 228° Southwest 430 495 38,000  Level Gander Center
11:59AM 59.1333 -66.4833 218° Southwest 430 495 38,000  Level Gander Center
12:00PM 59.0667 -66.6667 235° Southwest 430 495 38,000  Level Gander Center
12:01PM 58.9667 -66.8167 218° Southwest 430 495 38,000  Level Gander Center
12:02PM 58.8833 -66.9500 220° Southwest 430 495 38,000  Level Gander Center
12:03PM 58.8167 -67.1333 235° Southwest 430 495 38,000  Level Gander Center
12:04PM 58.7167 -67.2833 218° Southwest 430 495 38,000  Level Gander Center
12:05PM 58.6333 -67.4667 229° Southwest 430 495 38,000  Level Gander Center
12:06PM 58.5500 -67.6167 223° Southwest 430 495 38,000  Level Gander Center
12:07PM 58.4667 -67.7833 226° Southwest 430 495 38,000  Level Gander Center
12:08PM 58.3667 -67.9333 218° Southwest 430 495 38,000  Level Gander Center
12:09PM 58.2833 -68.1000 226° Southwest 440 506 38,000  Level Gander Center
12:10PM 58.2000 -68.2833 229° Southwest 440 506 38,000  Level Gander Center
12:11PM 58.1167 -68.4167 220° Southwest 450 518 38,000  Level Gander Center
12:12PM 58.0167 -68.5333 212° Southwest 390 449 38,000  Level Gander Center
12:13PM 57.9333 -68.6667 220° Southwest 440 506 38,000  Level Gander Center
12:14PM 57.8167 -68.8000 211° Southwest 440 506 38,000  Level Gander Center
12:15PM 57.7333 -68.9833 230° Southwest 440 506 38,000  Level Gander Center
12:16PM 57.6667 -69.0000 188° South 440 506 38,000  Level Montreal Center
12:17PM 57.5667 -69.1167 212° Southwest 430 495 38,000  Level Montreal Center
12:18PM 57.4500 -69.2667 215° Southwest 430 495 38,000  Level Montreal Center
12:19PM 57.3667 -69.4000 221° Southwest 430 495 38,000  Level Montreal Center
12:20PM 57.2667 -69.5500 219° Southwest 430 495 38,000  Level Montreal Center
12:21PM 57.1500 -69.6667 208° Southwest 440 506 38,000  Level Montreal Center
12:22PM 57.0667 -69.8000 221° Southwest 440 506 38,000  Level Montreal Center
12:23PM 56.9667 -69.9000 209° Southwest 430 495 38,000  Level Montreal Center
12:24PM 56.8667 -70.0500 219° Southwest 430 495 38,000  Level Montreal Center
12:25PM 56.7833 -70.1833 221° Southwest 430 495 38,000  Level Montreal Center
12:26PM 56.6667 -70.3000 209° Southwest 430 495 38,000  Level Montreal Center
12:27PM 56.5667 -70.4333 216° Southwest 430 495 38,000  Level Montreal Center
12:28PM 56.4667 -70.5667 216° Southwest 430 495 38,000  Level Montreal Center
12:29PM 56.3833 -70.6667 214° Southwest 430 495 38,000  Level Montreal Center
12:30PM 56.2833 -70.7667 209° Southwest 430 495 38,000  Level Montreal Center
12:31PM 56.1667 -70.9167 216° Southwest 430 495 38,000  Level Montreal Center
12:32PM 56.0667 -71.0500 217° Southwest 430 495 38,000  Level Montreal Center
12:33PM 55.9667 -71.1500 209° Southwest 430 495 38,000  Level Montreal Center
12:34PM 55.8833 -71.2833 222° Southwest 430 495 38,000  Level Montreal Center
12:35PM 55.7667 -71.3833 206° Southwest 430 495 38,000  Level Montreal Center
12:36PM 55.6667 -71.5167 217° Southwest 430 495 38,000  Level Montreal Center
12:37PM 55.5667 -71.6500 217° Southwest 430 495 38,000  Level Montreal Center
12:38PM 55.4500 -71.7500 206° Southwest 430 495 38,000  Level Montreal Center
12:39PM 55.3667 -71.8667 219° Southwest 430 495 38,000  Level Montreal Center
12:40PM 55.2667 -71.9667 210° Southwest 430 495 38,000  Level Montreal Center
12:41PM 55.1667 -72.1000 217° Southwest 430 495 38,000  Level Montreal Center
12:42PM 55.0667 -72.2000 210° Southwest 430 495 38,000  Level Montreal Center
12:43PM 54.9667 -72.3167 214° Southwest 430 495 38,000  Level Montreal Center
12:44PM 54.8500 -72.4500 213° Southwest 430 495 38,000  Level Montreal Center
12:45PM 54.7500 -72.5500 210° Southwest 430 495 38,000  Level Montreal Center
12:46PM 54.6667 -72.6667 219° Southwest 430 495 38,000  Level Montreal Center
12:47PM 54.5667 -72.7667 210° Southwest 430 495 38,000  Level Montreal Center
12:48PM 54.4500 -72.9000 214° Southwest 430 495 38,000  Level Montreal Center
12:49PM 54.3500 -73.0167 214° Southwest 430 495 38,000  Level Montreal Center
12:50PM 54.2500 -73.1167 210° Southwest 430 495 38,000  Level Montreal Center
12:51PM 54.1500 -73.2333 214° Southwest 430 495 38,000  Level Montreal Center
12:52PM 54.0333 -73.3333 207° Southwest 430 495 38,000  Level Montreal Center
12:53PM 53.9333 -73.4500 214° Southwest 430 495 38,000  Level Montreal Center
12:54PM 53.8333 -73.5667 215° Southwest 430 495 38,000  Level Montreal Center
12:55PM 53.7333 -73.6500 206° Southwest 430 495 38,000  Level Montreal Center
12:56PM 53.6167 -73.7500 207° Southwest 430 495 38,000  Level Montreal Center
12:57PM 53.5167 -73.8667 215° Southwest 440 506 38,000  Level Montreal Center
12:58PM 53.4000 -73.9500 203° Southwest 430 495 38,000  Level Montreal Center
12:59PM 53.3000 -74.0500 211° Southwest 440 506 38,000  Level Montreal Center
01:00PM 53.1833 -74.1333 203° Southwest 440 506 38,000  Level Montreal Center
01:01PM 53.0667 -74.2333 207° Southwest 440 506 38,000  Level Montreal Center
01:02PM 52.9500 -74.3167 203° Southwest 440 506 38,000  Level Montreal Center
01:03PM 52.8667 -74.4000 211° Southwest 440 506 38,000  Level Montreal Center
01:04PM 52.7333 -74.4833 201° Southwest 440 506 38,000  Level Montreal Center
01:05PM 52.6167 -74.5833 208° Southwest 440 506 38,000  Level Montreal Center
01:06PM 52.5333 -74.6833 216° Southwest 450 518 38,000  Level Montreal Center
01:07PM 52.4000 -74.7833 205° Southwest 440 506 38,000  Level Montreal Center
01:08PM 52.3000 -74.8667 207° Southwest 430 495 38,000  Level Montreal Center
01:09PM 52.1833 -74.9500 204° Southwest 440 506 38,000  Level Montreal Center
01:10PM 52.0667 -75.0333 204° Southwest 450 518 38,000  Level Montreal Center
01:11PM 51.9500 -75.1167 204° Southwest 460 529 38,000  Level Montreal Center
01:12PM 51.8333 -75.2000 204° Southwest 450 518 38,000  Level Montreal Center
01:13PM 51.7333 -75.2833 207° Southwest 450 518 38,000  Level Montreal Center
01:14PM 51.6167 -75.4000 212° Southwest 440 506 38,000  Level Montreal Center
01:15PM 51.5000 -75.4833 204° Southwest 450 518 38,000  Level Montreal Center
01:16PM 51.3833 -75.5667 204° Southwest 440 506 38,000  Level Montreal Center
01:17PM 51.2833 -75.6500 208° Southwest 440 506 38,000  Level Montreal Center
01:18PM 51.1667 -75.7167 200° South 440 506 38,000  Level Montreal Center
01:19PM 51.0500 -75.8000 204° Southwest 440 506 38,000  Level Montreal Center
01:20PM 50.9500 -75.8833 208° Southwest 440 506 38,000  Level Montreal Center
01:21PM 50.8333 -75.9667 204° Southwest 440 506 38,000  Level Montreal Center
01:22PM 50.7167 -76.0500 204° Southwest 440 506 38,000  Level Montreal Center
01:23PM 50.6167 -76.1500 212° Southwest 440 506 38,000  Level Montreal Center
01:24PM 50.5000 -76.2333 204° Southwest 450 518 38,000  Level Montreal Center
01:25PM 50.3833 -76.3167 204° Southwest 440 506 38,000  Level Montreal Center
01:26PM 50.2833 -76.3833 203° Southwest 440 506 38,000  Level Montreal Center
01:27PM 50.1500 -76.4667 202° Southwest 450 518 38,000  Level Montreal Center
01:28PM 50.0333 -76.5500 205° Southwest 450 518 38,000  Level Montreal Center
01:29PM 49.9167 -76.6167 200° South 450 518 38,000  Level Montreal Center
01:30PM 49.8167 -76.7000 208° Southwest 440 506 38,000  Level Montreal Center
01:31PM 49.7000 -76.7667 200° South 450 518 38,000  Level Montreal Center
01:32PM 49.5833 -76.8667 209° Southwest 450 518 38,000  Level Montreal Center
01:33PM 49.4833 -76.9500 208° Southwest 440 506 38,000  Level Montreal Center
01:34PM 49.3500 -77.0167 198° South 460 529 38,000  Level Montreal Center
01:35PM 49.2500 -77.1000 209° Southwest 430 495 38,000  Level Montreal Center
01:36PM 49.1333 -77.1667 201° Southwest 440 506 38,000  Level Montreal Center
01:37PM 49.0333 -77.2500 209° Southwest 450 518 38,000  Level Montreal Center
01:38PM 48.9000 -77.3167 198° South 450 518 38,000  Level Montreal Center
01:39PM 48.7833 -77.4167 209° Southwest 440 506 38,000  Level Montreal Center
01:40PM 48.6667 -77.5000 205° Southwest 440 506 38,000  Level Montreal Center
01:41PM 48.5667 -77.5667 204° Southwest 450 518 38,000  Level Montreal Center
01:42PM 48.4500 -77.6333 201° Southwest 450 518 38,000  Level Montreal Center
01:43PM 48.3333 -77.7167 205° Southwest 450 518 38,000  Level Montreal Center
01:44PM 48.2167 -77.7833 201° Southwest 450 518 38,000  Level Montreal Center
01:45PM 48.1167 -77.8500 204° Southwest 450 518 38,000  Level Montreal Center
01:46PM 47.9833 -77.9167 199° South 440 506 38,000  Level Montreal Center
01:47PM 47.8667 -78.0000 206° Southwest 440 506 38,000  Level Montreal Center
01:48PM 47.7500 -78.0667 201° Southwest 440 506 38,000  Level Montreal Center
01:49PM 47.6333 -78.1333 201° Southwest 440 506 38,000  Level Montreal Center
01:50PM 47.5333 -78.2000 204° Southwest 440 506 38,000  Level Montreal Center
01:51PM 47.4167 -78.2667 201° Southwest 440 506 38,000  Level Montreal Center
01:52PM 47.3000 -78.3167 196° South 440 506 38,000  Level Montreal Center
01:53PM 47.1833 -78.3833 201° Southwest 440 506 38,000  Level Montreal Center
01:54PM 47.0667 -78.4500 201° Southwest 440 506 38,000  Level Montreal Center
01:55PM 46.9500 -78.5167 201° Southwest 440 506 38,000  Level Montreal Center
01:56PM 46.8333 -78.6000 206° Southwest 440 506 38,000  Level Montreal Center
01:57PM 46.7167 -78.6667 201° Southwest 440 506 38,000  Level Montreal Center
01:58PM 46.6000 -78.7333 201° Southwest 440 506 38,000  Level Montreal Center
01:59PM 46.5000 -78.7667 193° South 440 506 38,000  Level Montreal Center
02:00PM 46.4000 -78.8333 205° Southwest 440 506 38,000  Level Montreal Center
02:01PM 46.2667 -78.9000 199° South 430 495 38,000  Level Montreal Center
02:02PM 46.1500 -78.9667 202° Southwest 430 495 38,000  Level Montreal Center
02:03PM 46.0333 -79.0333 202° Southwest 430 495 38,000  Level Montreal Center
02:04PM 45.9333 -79.0833 199° South 430 495 38,000  Level Montreal Center
02:09PM 45.3446 -79.3974 199° South 441 507 38,000  Level FlightAware ADS-B
02:11PM 45.1356 -79.5068 200° South 443 510 38,000  Level FlightAware ADS-B
02:15PM 44.6645 -79.7511 200° South 446 513 38,000  Level FlightAware ADS-B
02:16PM 44.4913 -79.8738 207° Southwest 429 494 38,000  Level FlightAware ADS-B
02:17PM 44.4456 -79.9161 213° Southwest 429 494 38,000  Level FlightAware ADS-B
02:18PM 44.3826 -79.9730 213° Southwest 427 491 38,000  Level FlightAware ADS-B
02:19PM 44.2260 -80.1135 213° Southwest 431 496 38,000  Level FlightAware ADS-B
02:20PM 44.1243 -80.2041 213° Southwest 432 497 38,000  Level FlightAware ADS-B
02:21PM 44.0647 -80.2567 212° Southwest 432 497 38,000  Level FlightAware ADS-B
02:21PM 44.0085 -80.3067 213° Southwest 431 496 38,000  Level FlightAware ADS-B
02:22PM 43.9491 -80.3594 213° Southwest 431 496 38,000  Level FlightAware ADS-B
02:22PM 43.8732 -80.4261 212° Southwest 429 494 38,000  Level FlightAware ADS-B
02:23PM 43.8159 -80.4764 212° Southwest 428 493 38,000  Level FlightAware ADS-B
02:24PM 43.7586 -80.5268 212° Southwest 427 491 38,000  Level FlightAware ADS-B
02:24PM 43.6934 -80.5839 212° Southwest 425 489 38,000  Level FlightAware ADS-B
02:25PM 43.6493 -80.6223 212° Southwest 426 490 38,000  Level FlightAware ADS-B
02:25PM 43.5746 -80.6874 212° Southwest 428 493 38,000  Level FlightAware ADS-B
02:26PM 43.5222 -80.7328 212° Southwest 429 494 38,000  Level FlightAware ADS-B
02:27PM 43.4626 -80.7843 212° Southwest 426 490 38,000  Level FlightAware ADS-B
02:27PM 43.4155 -80.8250 212° Southwest 424 488 38,000  Level FlightAware ADS-B
02:28PM 43.3424 -80.8884 212° Southwest 423 487 38,000  Level FlightAware ADS-B
02:29PM 43.2594 -80.9599 212° Southwest 421 484 38,000  Level FlightAware ADS-B
02:29PM 43.1926 -81.0171 212° Southwest 420 483 38,000  Level FlightAware ADS-B
02:30PM 43.1270 -81.0731 212° Southwest 420 483 38,000  Level FlightAware ADS-B
02:30PM 43.0846 -81.1093 212° Southwest 420 483 38,000  Level FlightAware ADS-B
02:31PM 42.9884 -81.1782 208° Southwest 430 495 38,000  Level FlightAware ADS-B
02:32PM 42.9058 -81.2303 205° Southwest 429 494 38,000  Level FlightAware ADS-B
02:33PM 42.8269 -81.2795 205° Southwest 431 496 38,000  Level FlightAware ADS-B
02:34PM 42.7511 -81.3262 204° Southwest 431 496 38,000  Level FlightAware ADS-B
02:34PM 42.6477 -81.3896 204° Southwest 431 496 38,000  Level FlightAware ADS-B
02:35PM 42.5792 -81.4314 204° Southwest 431 496 38,000  Level FlightAware ADS-B
02:36PM 42.5266 -81.4636 204° Southwest 429 494 38,000  Level FlightAware ADS-B
02:36PM 42.4740 -81.4956 204° Southwest 431 496 38,000  Level FlightAware ADS-B
02:38PM 42.3028 -81.5994 204° Southwest 433 498 38,000  Level FlightAware ADS-B
02:39PM 42.1931 -81.6657 204° Southwest 435 501 38,000  Level FlightAware ADS-B
02:39PM 42.1322 -81.7011 204° Southwest 434 499 38,000  Level Cleveland Center
02:40PM 42.0208 -81.7692 204° Southwest 435 501 38,000  Level Cleveland Center
02:41PM 41.9106 -81.8339 204° Southwest 431 496 38,000  Level Cleveland Center
02:42PM 41.8000 -81.8994 204° Southwest 432 497 38,000  Level Cleveland Center
02:43PM 41.6714 -81.9769 204° Southwest 432 497 38,000  Level Cleveland Center
02:44PM 41.5603 -82.0419 204° Southwest 435 501 38,000  Level Cleveland Center
02:45PM 41.4492 -82.1075 204° Southwest 436 502 38,000  Level Cleveland Center
02:47PM 41.3369 -82.1681 202° Southwest 436 502 38,000  Level Cleveland Center
02:48PM 41.2181 -82.2106 195° South 442 509 38,000  Level Cleveland Center
02:49PM 41.0997 -82.2547 196° South 442 509 38,000  Level Cleveland Center
02:54PM 40.7046 -82.3948 196° South 446 513 38,000  Level FlightAware ADS-B
02:56PM 40.1518 -82.5839 195° South 446 513 38,000  Level FlightAware ADS-B
02:57PM 40.0744 -82.5923 185° South 452 520 38,000  Level FlightAware ADS-B
02:58PM 39.9425 -82.6022 183° South 445 512 38,000  Level FlightAware ADS-B
02:59PM 39.8698 -82.6074 183° South 444 511 38,000  Level FlightAware ADS-B
02:59PM 39.7803 -82.6135 183° South 444 511 38,000  Level FlightAware ADS-B
03:02PM 39.4536 -82.6356 183° South 441 507 38,000  Level FlightAware ADS-B
03:05PM 39.1311 -82.6569 183° South 437 503 38,000  Level FlightAware ADS-B
03:05PM 39.0489 -82.6623 183° South 435 501 38,000  Level FlightAware ADS-B
03:06PM 38.9533 -82.6686 183° South 432 497 38,000  Level Indianapolis Center
03:07PM 38.8100 -82.6778 183° South 431 496 38,000  Level Indianapolis Center
03:08PM 38.6906 -82.6853 183° South 429 494 38,000  Level Indianapolis Center
03:09PM 38.5775 -82.6931 183° South 426 490 38,000  Level Indianapolis Center
03:11PM 38.4400 -82.7014 183° South 422 486 38,000  Level Indianapolis Center
03:12PM 38.3231 -82.7083 183° South 420 483 38,000  Level Indianapolis Center
03:13PM 38.2058 -82.7161 183° South 420 483 38,000  Level Indianapolis Center
03:14PM 38.0900 -82.7264 184° South 417 480 38,000  Level Indianapolis Center
03:15PM 37.9744 -82.7336 183° South 415 478 38,000  Level Indianapolis Center
03:16PM 37.8594 -82.7406 183° South 413 475 38,000  Level Indianapolis Center
03:17PM 37.7256 -82.7525 184° South 412 474 38,000  Level Indianapolis Center
03:18PM 37.6208 -82.7903 196° South 393 452 38,000  Level Indianapolis Center
03:19PM 37.5264 -82.8511 207° Southwest 381 438 38,000  Level Indianapolis Center
03:20PM 37.4339 -82.9136 208° Southwest 378 435 38,000  Level Indianapolis Center
03:21PM 37.3397 -82.9750 207° Southwest 380 437 38,000  Level Indianapolis Center
03:22PM 37.2467 -83.0358 207° Southwest 376 433 38,000  Level Indianapolis Center
03:23PM 37.1378 -83.1058 207° Southwest 378 435 38,000  Level Indianapolis Center
03:24PM 37.0464 -83.1667 208° Southwest 376 433 38,000  Level Indianapolis Center
03:25PM 36.9539 -83.2267 207° Southwest 377 434 38,000  Level Indianapolis Center
03:26PM 36.8625 -83.2853 207° Southwest 373 429 38,000  Level Indianapolis Center
03:27PM 36.7547 -83.3542 207° Southwest 374 430 38,000  Level Indianapolis Center
03:28PM 36.6619 -83.4131 207° Southwest 375 432 38,000  Level Indianapolis Center
03:29PM 36.5697 -83.4722 207° Southwest 373 429 38,000  Level Indianapolis Center
03:30PM 36.4806 -83.5292 207° Southwest 370 426 38,000  Level Indianapolis Center
03:31PM 36.3875 -83.5892 207° Southwest 373 429 38,000  Level Indianapolis Center
03:32PM 36.2758 -83.6603 207° Southwest 375 432 38,000  Level Indianapolis Center
03:33PM 36.1825 -83.7203 207° Southwest 377 434 38,000  Level Indianapolis Center
03:34PM 36.0861 -83.7803 207° Southwest 382 440 38,000  Level Indianapolis Center
03:35PM 35.9900 -83.8400 207° Southwest 385 443 38,000  Level Indianapolis Center
03:36PM 35.8914 -83.8956 205° Southwest 388 447 38,000  Level Indianapolis Center
03:37PM 35.7803 -83.9239 192° South 403 464 38,000  Level Indianapolis Center
03:39PM 35.6453 -83.9594 192° South 402 463 38,000  Level Atlanta Center
03:40PM 35.5347 -83.9878 192° South 407 468 38,000  Level Atlanta Center
03:41PM 35.4242 -84.0133 191° South 413 475 38,000  Level Atlanta Center
03:42PM 35.3156 -84.0389 191° South 408 470 38,000  Level Atlanta Center
03:43PM 35.2050 -84.0667 192° South 408 470 38,000  Level Atlanta Center
03:44PM 35.0944 -84.0947 192° South 408 470 38,000  Level Atlanta Center
03:45PM 34.9858 -84.1172 190° South 413 475 38,000  Level Atlanta Center
03:46PM 34.8775 -84.1450 192° South 407 468 38,000  Level Atlanta Center
03:47PM 34.7667 -84.1703 191° South 407 468 38,000  Level Atlanta Center
03:48PM 34.6478 -84.1953 190° South 407 468 38,000  Level Atlanta Center
03:49PM 34.5414 -84.2203 191° South 399 459 38,000  Level Atlanta Center
03:50PM 34.4286 -84.2478 191° South 399 459 38,000  Level Atlanta Center
03:51PM 34.3242 -84.2728 191° South 399 459 38,000  Level Atlanta Center
03:52PM 34.2136 -84.3000 192° South 399 459 38,000  Level Atlanta Center
03:53PM 34.1008 -84.3272 191° South 406 467 38,000  Level Atlanta Center
03:54PM 33.9964 -84.3519 191° South 411 473 38,000  Level Atlanta Center
03:55PM 33.8836 -84.3767 190° South 405 466 38,000  Level Atlanta Center
03:56PM 33.7728 -84.4011 190° South 405 466 38,000  Level Atlanta Center
03:57PM 33.6642 -84.4281 192° South 405 466 38,000 -60 Level Atlanta Center
03:58PM 33.5514 -84.4378 184° South 413 475 37,900 -300 Descending Atlanta Center
03:59PM 33.4347 -84.4344 179° South 423 487 37,500 -420 Descending Atlanta Center
04:00PM 33.3239 -84.4342 180° South 409 471 37,100 -300 Descending Atlanta Center
04:01PM 33.2092 -84.4311 179° South 409 471 37,000 -60 Descending Atlanta Center
04:02PM 33.0986 -84.4281 179° South 409 471 37,000  Level Atlanta Center
04:03PM 32.9858 -84.4300 181° South 403 464 37,000  Level Atlanta Center
04:04PM 32.8711 -84.4272 179° South 408 470 37,000  Level Atlanta Center
04:05PM 32.7708 -84.4192 176° South 408 470 37,000  Level Atlanta Center
04:06PM 32.6603 -84.4189 180° South 401 461 37,000  Level Atlanta Center
04:07PM 32.5475 -84.4158 179° South 406 467 37,000  Level Atlanta Center
04:08PM 32.4369 -84.4106 178° South 406 467 37,000  Level Atlanta Center
04:09PM 32.3222 -84.4100 180° South 406 467 37,000  Level Atlanta Center
04:10PM 32.2053 -84.4094 180° South 406 467 37,000  Level Atlanta Center
04:11PM 32.0925 -84.4067 179° South 406 467 37,000  Level Atlanta Center
04:11PM 32.0197 -84.4044 179° South 417 480 37,000  Level Jacksonville Center
04:12PM 31.9050 -84.4025 179° South 424 488 37,000  Level Jacksonville Center
04:13PM 31.7922 -84.3983 178° South 413 475 37,000  Level Jacksonville Center
04:19PM 31.1719 -84.3182 178° South 428 493 37,000  Level FlightAware ADS-B (KTLH)
04:19PM 31.0761 -84.2727 158° South 429 494 37,000  Level FlightAware ADS-B
04:20PM 31.0442 -84.2578 158° South 430 495 37,000  Level FlightAware ADS-B
04:21PM 30.9226 -84.2017 158° South 430 495 37,000  Level FlightAware ADS-B (KTLH)
04:21PM 30.8632 -84.1742 158° South 428 493 37,000  Level FlightAware ADS-B (KTLH)
04:22PM 30.8033 -84.1466 158° South 422 486 37,000  Level FlightAware ADS-B
04:22PM 30.7401 -84.1175 158° South 423 487 37,000  Level FlightAware ADS-B (KTLH)
04:23PM 30.6705 -84.0855 158° South 424 488 37,000  Level FlightAware ADS-B
04:24PM 30.6019 -84.0540 158° South 427 491 37,000  Level FlightAware ADS-B
04:24PM 30.5271 -84.0197 158° South 430 495 37,000  Level FlightAware ADS-B
04:25PM 30.4515 -83.9850 158° South 430 495 37,000  Level FlightAware ADS-B
04:26PM 30.3769 -83.9509 158° South 430 495 37,000  Level FlightAware ADS-B
04:26PM 30.3029 -83.9172 159° South 431 496 37,000  Level FlightAware ADS-B
04:27PM 30.2530 -83.8944 158° South 432 497 37,000  Level FlightAware ADS-B
04:28PM 30.1979 -83.8691 158° South 429 494 37,000  Level FlightAware ADS-B
04:28PM 30.1376 -83.8417 158° South 429 494 37,000  Level FlightAware ADS-B (KTLH)
04:29PM 30.0126 -83.7851 159° South 431 496 37,000  Level FlightAware ADS-B (KTLH)
04:30PM 29.8983 -83.7358 159° South 431 496 37,000  Level Jacksonville Center
04:31PM 29.7858 -83.6847 158° South 431 496 37,000  Level Jacksonville Center
04:32PM 29.6736 -83.6336 158° South 431 496 37,000  Level Jacksonville Center
04:33PM 29.5611 -83.5850 159° South 431 496 37,000  Level Jacksonville Center
04:34PM 29.4486 -83.5342 159° South 431 496 37,000  Level Jacksonville Center
04:35PM 29.3383 -83.4833 158° South 431 496 37,000  Level Jacksonville Center
04:36PM 29.2278 -83.4350 159° South 431 496 37,000  Level Jacksonville Center
04:37PM 29.1194 -83.3847 158° South 431 496 37,000  Level Jacksonville Center
04:38PM 29.0111 -83.3367 159° South 431 496 37,000  Level Jacksonville Center
04:44PM 28.3943 -83.0639 159° South 418 481 37,000  Level FlightAware ADS-B (KMCO)
04:46PM 28.1791 -82.9698 159° South 415 478 37,000  Level FlightAware ADS-B (KMCO)
04:47PM 28.0884 -82.9304 159° South 415 478 37,000  Level FlightAware ADS-B (KMCO)
04:51PM 27.6301 -82.8087 167° South 422 486 37,000  Level FlightAware ADS-B (KMCO)
04:52PM 27.5186 -82.7989 167° South 428 493 37,000  Level Miami Center
04:53PM 27.4042 -82.7906 176° South 423 487 37,000  Level Miami Center
04:54PM 27.3003 -82.7806 175° South 418 481 37,000  Level Miami Center
04:55PM 27.1756 -82.7719 176° South 412 474 37,000  Level Miami Center
04:56PM 27.0589 -82.7636 176° South 412 474 37,000  Level Miami Center
05:02PM 26.3696 -82.7060 176° South 413 475 37,000  Level FlightAware ADS-B (KMCO)
05:02PM 26.2988 -82.7003 176° South 413 475 37,000  Level FlightAware ADS-B (KMCO)
05:03PM 26.1859 -82.6912 176° South 414 476 37,000  Level FlightAware ADS-B (KMCO)
05:04PM 26.1046 -82.6847 176° South 415 478 37,000  Level FlightAware ADS-B (KMCO)
05:08PM 25.6165 -82.6457 176° South 408 470 37,000  Level FlightAware ADS-B (KMCO)
05:09PM 25.5675 -82.6418 176° South 407 468 37,000 -780 Level FlightAware ADS-B (KMCO)
05:10PM 25.4374 -82.6315 176° South 407 468 35,800 -1,200 Descending FlightAware ADS-B (KMCO)
05:11PM 25.3425 -82.6261 176° South 418 481 34,800 -1,200 Descending Miami Center
05:12PM 25.2303 -82.6161 175° South 413 475 33,600 -1,140 Descending Miami Center
05:13PM 25.1197 -82.6086 176° South 403 464 32,600 -1,020 Descending Miami Center
05:14PM 25.0094 -82.6014 177° South 403 464 31,600 -1,020 Descending Miami Center
05:15PM 24.9014 -82.5917 175° South 403 464 30,600 -1,320 Descending Miami Center
05:16PM 24.7911 -82.5819 175° South 398 458 29,000 -1,560 Descending Miami Center
05:17PM 24.6847 -82.5769 178° South 398 458 27,500 -1,260 Descending Miami Center
05:18PM 24.5828 -82.5678 175° South 384 442 26,500 -1,260 Descending Miami Center
05:19PM 24.4828 -82.5608 176° South 373 429 25,000 -1,500 Descending Miami Center
05:20PM 24.3892 -82.5544 176° South 361 415 23,500 -1,500 Descending Miami Center
05:21PM 24.2914 -82.5453 175° South 351 404 22,000 -780 Descending Miami Center
05:22PM 24.1956 -82.5386 176° South 346 398 22,000 -60 Level Miami Center
05:23PM 24.1103 -82.5325 176° South 346 398 21,900 -120 Descending Miami Center
05:25PM 23.9001 -82.5024 173° South  Level FlightAware Approximate
05:32PM 23.0807 -82.4061 170° South  Level FlightAware Approximate
05:33PM 22.9891 -82.4091 180° South  Level Estimated
05:34PM 22.9891 -82.4091 180° South  Level Estimated
05:35PM 22.9891 -82.4091 180° South  Level Estimated
05:36PM 22.9891 -82.4091 180° South  Level Estimated
05:37PM 22.9891 -82.4091 180° South  Level Estimated
05:38PM 22.9891 -82.4091 180° South  Level Estimated
05:39PM 22.9891 -82.4091 180° South  Level Estimated
05:40PM 22.9891 -82.4091 180° South  Level Estimated
05:41PM 22.9891 -82.4091 180° South  Level Estimated
05:42PM 22.9891 -82.4091 180° South  Level Estimated
05:43PM 22.9891 -82.4091 180° South  Level Estimated
05:44PM 22.9891 -82.4091 180° South  Level Estimated
05:45PM 22.9891 -82.4091 180° South  Level Estimated
05:46PM 22.9891 -82.4091 180° South  Level Estimated
05:47PM 22.9891 -82.4091 180° South  Level Estimated
05:48PM 22.9891 -82.4091 180° South  Level Estimated
05:49PM 22.9891 -82.4091 180° South  Level Estimated
05:50PM 22.9891 -82.4091 180° South  Level Estimated
05:51PM 22.9891 -82.4091 180° South  Level Estimated
05:52PM 22.9891 -82.4091 180° South  Level Estimated
05:53PM 22.9891 -82.4091 180° South  Level Estimated
05:54PM 22.9891 -82.4091 180° South  Level Estimated